Auburn, New York
Current Conditions -  °F | °C
As of 6:54 AM on Saturday 20 Dec 2014 (Local Time) from KSYR Reporting Station
Overcast Overcast  
Wind Chill: 23°   Ceiling: 1800
Heat Index: 23°   Visibility: 10mi
Dew Point: 20°   Wind: 3mph
Humidity: 88%   Direction: 320°NW
Pressure: 30.29"   Gusts: NA
Location:  42.93°N, 76.56°W
Report Text: KSYR 201154Z 32003KT 10SM OVC018 M05/M07 A3029 RMK AO2 SLP260 T10501067 11033 21050 53023
Loading
Personal Weather Stations






























Interactive Weather Map New forecast layout! Learn more

10-Day Weather Forecast

Advertisements
Track Severe Weather on mobile